Flight Track Log - Related Links

Times and Time Zones

All times are in EDT time to prevent confusion due to time zone crossing. See the N1250V flight status page for this flight to view local times or setup timezone preferences in your user account.

Time Position Orientation Groundspeed Altitude Reporting Facility
EDT Latitude Longitude Course Direction KTS MPH feet Rate Location/Type
Mon 11:26:53 AM 39.9667 -105.1500 337° Northwest 164 189 8,200  Level Denver TRACON
Mon 11:27:54 AM 39.9667 -105.1000 90° East 181 208 10,000 1,725 Climbing Denver TRACON
Mon 11:28:13 AM 39.9694 -105.0767 81° East 171 197 10,500 1,704 Climbing Denver Center
Mon 11:29:15 AM 39.9600 -105.0189 102° East 165 190 12,300 1,742 Climbing Denver Center
Mon 11:30:17 AM 39.9486 -104.9542 103° East 169 194 14,100 1,452 Climbing Denver Center
Mon 11:31:19 AM 39.9381 -104.8864 101° East 188 216 15,300 1,258 Climbing Denver Center
Mon 11:32:21 AM 39.9242 -104.8028 102° East 218 251 16,700 1,113 Climbing Denver Center
Mon 11:33:23 AM 39.9089 -104.7117 102° East 259 298 17,600 919 Climbing Denver Center
Mon 11:34:25 AM 39.8911 -104.6072 102° East 291 335 18,600 1,210 Climbing Denver Center
Mon 11:35:27 AM 39.8733 -104.4997 102° East 284 327 20,100 1,548 Climbing Denver Center
Mon 11:36:29 AM 39.8542 -104.4000 104° East 284 327 21,800 1,536 Climbing Denver Center
Mon 11:37:32 AM 39.8369 -104.3042 103° East 274 315 23,300 1,296 Climbing Denver Center
Mon 11:38:34 AM 39.8214 -104.2022 101° East 274 315 24,500 1,113 Climbing Denver Center
Mon 11:39:36 AM 39.8028 -104.1014 103° East 284 327 25,600 1,016 Climbing Denver Center
Mon 11:40:38 AM 39.7850 -103.9969 102° East 293 337 26,600 871 Climbing Denver Center
Mon 11:41:40 AM 39.7678 -103.8903 102° East 304 350 27,400 968 Climbing Denver Center
Mon 11:42:42 AM 39.7428 -103.7592 104° East 309 356 28,600 1,016 Climbing Denver Center
Mon 11:43:44 AM 39.7331 -103.6517 97° East 301 346 29,500 871 Climbing Denver Center
Mon 11:44:46 AM 39.7247 -103.5419 96° East 304 350 30,400 774 Climbing Denver Center
Mon 11:45:48 AM 39.7164 -103.4314 96° East 308 354 31,100 629 Climbing Denver Center
Mon 11:46:50 AM 39.7075 -103.3172 96° East 315 362 31,700 532 Climbing Denver Center
Mon 11:47:52 AM 39.6964 -103.2022 97° East 320 368 32,200 532 Climbing Denver Center
Mon 11:48:54 AM 39.6867 -103.0603 95° East 328 377 32,800 387 Climbing Denver Center
Mon 11:49:56 AM 39.6753 -102.9403 97° East 335 386 33,000 97 Climbing Denver Center
Mon 11:50:58 AM 39.6664 -102.8153 95° East 347 399 33,000  Level Denver Center
Mon 11:52:00 AM 39.6533 -102.6797 97° East 362 417 33,000  Level Denver Center
Mon 11:53:03 AM 39.6417 -102.5528 97° East 370 426 33,000  Level Denver Center
Mon 11:54:05 AM 39.6297 -102.4025 96° East 375 432 33,000  Level Denver Center
Mon 11:55:07 AM 39.6175 -102.2722 97° East 379 436 33,000  Level Denver Center
Mon 11:56:09 AM 39.6025 -102.1175 97° East 387 445 33,000  Level Denver Center
Mon 11:57:11 AM 39.5906 -101.9839 97° East 390 449 33,000  Level Denver Center
Mon 11:58:13 AM 39.5789 -101.8278 95° East 389 448 33,000  Level Denver Center
Mon 11:59:15 AM 39.5675 -101.6928 96° East 394 453 33,000  Level Denver Center
Mon 12:00:29 PM 39.5531 -101.5147 96° East 390 449 33,000  Level Denver Center
Mon 12:01:32 PM 39.5417 -101.3581 95° East 391 450 33,000  Level Denver Center
Mon 12:02:34 PM 39.5378 -101.2233 92° East 393 452 33,000  Level Denver Center
Mon 12:03:36 PM 39.5319 -101.0653 93° East 394 453 33,000  Level Denver Center
Mon 12:04:38 PM 39.5275 -100.9314 92° East 392 451 33,000  Level Denver Center
Mon 12:05:40 PM 39.5231 -100.7961 92° East 393 452 33,000  Level Denver Center
Mon 12:06:42 PM 39.5167 -100.6386 93° East 394 453 33,000  Level Denver Center
Mon 12:07:44 PM 39.5106 -100.5019 93° East 396 456 33,000  Level Denver Center
Mon 12:08:46 PM 39.5044 -100.3428 93° East 395 455 33,000  Level Denver Center
Mon 12:09:48 PM 39.4986 -100.2072 93° East 395 455 33,000  Level Denver Center
Mon 12:10:50 PM 39.4925 -100.0508 93° East 392 451 33,000  Level Denver Center
Mon 12:11:52 PM 39.4861 -99.9172 94° East 392 451 33,000  Level Denver Center
Mon 12:12:54 PM 39.4864 -99.7583 90° East 396 456 33,000  Level Denver Center
Mon 12:13:56 PM 39.4856 -99.6242 90° East 391 450 33,000  Level Denver Center
Mon 12:14:58 PM 39.4850 -99.4822 90° East 393 452 33,000  Level Denver Center
Mon 12:16:00 PM 39.4847 -99.3406 90° East 394 453 33,000  Level Denver Center
Mon 12:17:03 PM 39.4831 -99.1719 91° East 393 452 33,000  Level Denver Center
Mon 12:18:05 PM 39.4817 -99.0292 91° East 396 456 33,000  Level Denver Center
Mon 12:19:07 PM 39.4817 -98.8892 90° East 390 449 33,000  Level Denver Center
Mon 12:20:09 PM 39.4789 -98.7469 91° East 393 452 33,000  Level Denver Center
Mon 12:21:11 PM 39.4781 -98.6053 90° East 395 455 33,000  Level Denver Center
Mon 12:21:50 PM 39.4769 -98.4894 91° East 397 457 33,000  Level Kansas City Center
Mon 12:22:54 PM 39.4750 -98.3492 91° East 392 451 33,000  Level Kansas City Center
Mon 12:23:54 PM 39.4714 -98.2025 92° East 394 453 33,000  Level Kansas City Center
Mon 12:24:58 PM 39.4697 -98.0672 91° East 392 451 33,000  Level Kansas City Center
Mon 12:25:59 PM 39.4653 -97.9081 92° East 395 455 33,000  Level Kansas City Center
Mon 12:27:03 PM 39.4656 -97.7817 90° East 397 457 33,000  Level Kansas City Center
Mon 12:28:03 PM 39.4625 -97.6122 91° East 395 455 33,000  Level Kansas City Center
Mon 12:29:07 PM 39.4589 -97.4786 92° East 392 451 33,000  Level Kansas City Center
Mon 12:30:07 PM 39.4547 -97.3425 92° East 394 453 33,000  Level Kansas City Center
Mon 12:31:09 PM 39.4514 -97.1828 91° East 397 457 33,000  Level Kansas City Center
Mon 12:32:12 PM 39.4483 -97.0472 92° East 395 455 33,000  Level Kansas City Center
Mon 12:33:13 PM 39.4431 -96.8900 92° East 394 453 33,000 97 Level Kansas City Center
Mon 12:34:16 PM 39.4403 -96.7564 91° East 390 449 33,200 290 Climbing Kansas City Center
Mon 12:35:17 PM 39.4347 -96.6019 93° East 386 444 33,600 339 Climbing Kansas City Center
Mon 12:36:20 PM 39.4314 -96.4681 92° East 377 434 33,900 290 Climbing Kansas City Center
Mon 12:37:21 PM 39.4419 -96.3339 84° East 375 432 34,200 240 Climbing Kansas City Center
Mon 12:38:25 PM 39.4603 -96.2017 80° East 374 430 34,400 288 Climbing Kansas City Center
Mon 12:39:26 PM 39.4786 -96.0489 81° East 373 429 34,800 295 Climbing Kansas City Center
Mon 12:40:27 PM 39.4942 -95.9219 81° East 373 429 35,000 97 Climbing Kansas City Center
Mon 12:41:30 PM 39.5136 -95.7725 80° East 377 434 35,000  Level Kansas City Center
Mon 12:42:32 PM 39.5294 -95.6417 81° East 381 438 35,000  Level Kansas City Center
Mon 12:43:35 PM 39.5447 -95.5092 81° East 386 444 35,000  Level Kansas City Center
Mon 12:44:36 PM 39.5658 -95.3550 80° East 387 445 35,000  Level Kansas City Center
Mon 12:45:39 PM 39.5825 -95.2214 81° East 389 448 35,000  Level Kansas City Center
Mon 12:46:39 PM 39.5683 -95.0669 97° East 382 440 35,000 48 Level Kansas City Center
Mon 12:47:43 PM 39.5603 -94.9308 94° East 390 449 35,100  Climbing Kansas City Center
Mon 12:48:45 PM 39.5514 -94.7958 95° East 392 451 35,000 -49 Descending Kansas City Center
Mon 12:49:45 PM 39.5419 -94.6406 94° East 386 444 35,000  Level Kansas City Center
Mon 12:50:49 PM 39.5325 -94.5078 95° East 386 444 35,000  Level Kansas City Center
Mon 12:51:50 PM 39.5219 -94.3519 95° East 388 447 35,000  Level Kansas City Center
Mon 12:52:50 PM 39.5125 -94.2189 95° East 388 447 35,000  Level Kansas City Center
Mon 12:53:54 PM 39.5014 -94.0614 95° East 392 451 35,000  Level Kansas City Center
Mon 12:54:55 PM 39.4917 -93.9264 95° East 393 452 35,000  Level Kansas City Center
Mon 12:55:57 PM 39.4797 -93.7675 96° East 396 456 35,000  Level Kansas City Center
Mon 12:56:58 PM 39.4703 -93.6283 95° East 404 465 35,000  Level Kansas City Center
Mon 12:58:02 PM 39.4606 -93.4864 95° East 403 464 35,000  Level Kansas City Center
Mon 12:59:03 PM 39.4494 -93.3444 96° East 402 463 35,000  Level Kansas City Center
Mon 01:00:07 PM 39.4353 -93.1719 96° East 406 467 35,000  Level Kansas City Center
Mon 01:01:08 PM 39.4233 -93.0281 96° East 407 468 35,000  Level Kansas City Center
Mon 01:02:11 PM 39.4119 -92.8806 96° East 414 476 35,000  Level Kansas City Center
Mon 01:03:12 PM 39.3997 -92.7372 96° East 410 472 35,000  Level Kansas City Center
Mon 01:04:16 PM 39.3875 -92.5914 96° East 411 473 35,000  Level Kansas City Center
Mon 01:05:16 PM 39.3722 -92.4172 96° East 412 474 35,000  Level Kansas City Center
Mon 01:06:19 PM 39.3603 -92.2725 96° East 410 472 35,000  Level Kansas City Center
Mon 01:07:20 PM 39.3469 -92.1258 97° East 412 474 35,000  Level Kansas City Center
Mon 01:08:23 PM 39.3347 -91.9808 96° East 413 475 35,000  Level Kansas City Center
Mon 01:09:25 PM 39.3189 -91.8075 97° East 411 473 35,000  Level Kansas City Center
Mon 01:11:29 PM 39.2914 -91.5114 97° East 408 470 35,000  Level Kansas City Center
Mon 01:12:30 PM 39.2786 -91.3664 96° East 407 468 35,000  Level Kansas City Center
Mon 01:13:33 PM 39.2636 -91.2197 97° East 410 472 35,000  Level Kansas City Center
Mon 01:14:34 PM 39.2497 -91.0733 97° East 411 473 35,000  Level Kansas City Center
Mon 01:15:37 PM 39.2353 -90.9281 97° East 409 471 35,000  Level Kansas City Center
Mon 01:16:38 PM 39.2217 -90.7800 97° East 413 475 35,000  Level Kansas City Center
Mon 01:17:42 PM 39.2031 -90.6031 98° East 414 476 35,000  Level Kansas City Center
Mon 01:18:42 PM 39.1886 -90.4553 97° East 413 475 35,000  Level Kansas City Center
Mon 01:19:46 PM 39.1719 -90.3072 98° East 414 476 35,000  Level Kansas City Center
Mon 01:20:47 PM 39.1575 -90.1592 97° East 415 478 35,000  Level Kansas City Center
Mon 01:21:48 PM 39.1414 -90.0119 98° East 413 475 35,000  Level Kansas City Center
Mon 01:22:51 PM 39.1222 -89.8394 98° East 413 475 35,000  Level Kansas City Center
Mon 01:23:52 PM 39.1064 -89.6911 98° East 416 479 35,000  Level Kansas City Center
Mon 01:24:55 PM 39.0894 -89.5428 98° East 418 481 35,000  Level Kansas City Center
Mon 01:25:58 PM 39.0711 -89.3828 98° East 419 482 35,000  Level Kansas City Center
Mon 01:27:00 PM 39.0544 -89.2353 98° East 418 481 35,000  Level Kansas City Center
Mon 01:28:00 PM 39.0358 -89.0764 99° East 418 481 35,000  Level Kansas City Center
Mon 01:29:04 PM 39.0217 -88.9469 98° East 419 482 35,000  Level Kansas City Center
Mon 01:30:05 PM 39.0089 -88.7989 96° East 420 483 35,000  Level Kansas City Center
Mon 01:31:08 PM 38.9856 -88.6206 100° East 422 486 35,000  Level Kansas City Center
Mon 01:32:09 PM 38.9681 -88.4644 98° East 421 484 35,000  Level Kansas City Center
Mon 01:33:11 PM 38.9500 -88.3144 99° East 423 487 35,000  Level Kansas City Center
Mon 01:34:13 PM 38.9308 -88.1644 99° East 423 487 35,000  Level Kansas City Center
Mon 01:35:16 PM 38.9108 -88.0153 100° East 423 487 35,000 -387 Level Kansas City Center
Mon 01:36:17 PM 38.8931 -87.8622 98° East 429 494 34,200 -1,306 Descending Kansas City Center
Mon 01:37:20 PM 38.8725 -87.7050 99° East 441 507 32,300 -1,790 Descending Kansas City Center
Mon 01:38:21 PM 38.8522 -87.5550 100° East 431 496 30,500 -1,754 Descending Kansas City Center
Mon 01:39:30 PM 38.8275 -87.3781 100° East 421 484 28,500 -1,649 Descending Indianapolis Center
Mon 01:40:32 PM 38.8086 -87.2311 99° East 415 478 26,900 -1,902 Descending Indianapolis Center
Mon 01:41:33 PM 38.7897 -87.0881 100° East 406 467 24,600 -2,000 Descending Indianapolis Center
Mon 01:42:35 PM 38.7708 -86.9469 100° East 400 460 22,800 -1,645 Descending Indianapolis Center
Mon 01:43:37 PM 38.7525 -86.8142 100° East 381 438 21,200 -1,659 Descending Indianapolis Center
Mon 01:44:38 PM 38.7317 -86.6561 100° East 373 429 19,400 -1,122 Descending Indianapolis Center
Mon 01:45:40 PM 38.7147 -86.5297 100° East 361 415 18,900 -581 Descending Indianapolis Center
Mon 01:46:42 PM 38.7100 -86.4014 93° East 360 414 18,200 -780 Descending Indianapolis Center
Mon 01:47:43 PM 38.7058 -86.2711 92° East 364 419 17,300 -878 Descending Indianapolis Center
Mon 01:48:45 PM 38.7006 -86.1439 93° East 358 412 16,400 -726 Descending Indianapolis Center
Mon 01:49:47 PM 38.6953 -86.0192 93° East 351 404 15,800 -732 Descending Indianapolis Center
Mon 01:50:48 PM 38.6881 -85.8919 94° East 342 394 14,900 -780 Descending Indianapolis Center
Mon 01:51:50 PM 38.6822 -85.7747 94° East 335 386 14,200 -677 Descending Indianapolis Center
Mon 01:52:52 PM 38.6789 -85.6558 92° East 334 384 13,500 -732 Descending Indianapolis Center
Mon 01:53:53 PM 38.6725 -85.5394 94° East 329 379 12,700 -683 Descending Indianapolis Center
Mon 01:54:55 PM 38.6822 -85.4269 84° East 330 380 12,100 -290 Descending Indianapolis Center
Mon 01:55:57 PM 38.7367 -85.3178 57° Northeast 309 356 12,100  Level Indianapolis Center
Mon 01:56:58 PM 38.7814 -85.2181 60° Northeast 320 368 12,100  Level Indianapolis Center
Mon 01:58:00 PM 38.8278 -85.1189 59° Northeast 324 373 12,100 -145 Level Indianapolis Center
Mon 01:59:02 PM 38.8747 -85.0192 59° Northeast 327 376 11,800 -488 Descending Indianapolis Center
Mon 02:00:03 PM 38.9181 -84.9206 61° Northeast 321 369 11,100 -829 Descending Indianapolis Center
Mon 02:01:05 PM 38.9633 -84.8203 60° Northeast 314 361 10,100 -1,013 Descending Indianapolis Center
Mon 02:01:20 PM 38.9833 -84.7833 55° Northeast 293 337 9,800 -1,565 Descending Cincinnati TRACON
Mon 02:02:14 PM 39.0167 -84.7167 57° Northeast 242 278 8,300 -1,684 Descending Cincinnati TRACON
Mon 02:03:14 PM 39.0500 -84.6500 57° Northeast 239 275 6,600 -1,241 Descending Cincinnati TRACON
Mon 02:04:10 PM 39.0897 -84.6042 42° Northeast 215 247 5,900 -769 Descending Indianapolis Center
Mon 02:05:11 PM 39.1225 -84.5583 47° Northeast 185 213 5,100 -976 Descending Indianapolis Center
Mon 02:06:13 PM 39.1497 -84.5119 53° Northeast 168 193 3,900 -780 Descending Indianapolis Center
Mon 02:07:14 PM 39.1414 -84.4611 102° East 167 192 3,500 -393 Descending Indianapolis Center
Mon 02:10:00 PM 39.1000 -84.4167 57° Northeast  Level FlightAware Approximate
Mon 02:17:00 PM 39.1033 -84.4186 57° Northeast  Level Estimated

Login

Don't have an account? Register now (free) for customized features, flight alerts, and more!